• pl
  • eng

Awiacja
WIADOMOŚCI
ostatnia aktualizacja: 04.09.2019 09:33
Uprzejmie informujemy, że od dnia 2.09.2019 jest dostępna w formie testowej prognoza GAFOR. Prosimy o przesyłanie na adres gafor@imgw.pl uwag i sugestii, które przyczynią się do rozwoju produktu.

W dniach 1-5 października br. IMGW-PIB we współpracy z Lotniskiem Leszno, organizuje XVIII edycję Szkoły Meteorologii Lotniczej. Temat tegorocznej edycji Szkoły to "Meteorologia, a bezpieczne planowanie lotu". Szczegółowe informacje znajdują się w poniższym linku. Serdecznie zapraszamy do udziału w Szkole Meteorologii Lotniczej.

TAF FC 01:30 22.09.2019
  • WIND
  • SIGNIFICANT EURO
  • SIGNIFICANT
  • SIGMET
  • AIRMET
  • TAF FC
  • TAF FT
  • METAR GG30
  • METAR GG00


TAF EPLB 212330Z 2200/2209 27006KT CAVOK
PROB40 2200/2205 3000 BR=
Awiacja.imgw.pl jest pogodowym serwisem informacyjnym
Instytutu Meteorologii i Gospodarki Wodnej Państwowego Instytutu Badawczego.
Copyright IMGW PIB 2009-2011© Wszelkie prawa zastrzeżone.